sensor_id;sensor_type;location;lat;lon;timestamp;pressure;altitude;pressure_sealevel;temperature;humidity
78299;BME280;67556;55.656;12.590;2023-05-07T00:00:56;102619.38;;;5.17;68.90
78299;BME280;67556;55.656;12.590;2023-05-07T00:03:26;102613.28;;;5.18;68.76
78299;BME280;67556;55.656;12.590;2023-05-07T00:05:56;102620.06;;;5.14;69.12
78299;BME280;67556;55.656;12.590;2023-05-07T00:08:24;102613.84;;;5.24;68.86
78299;BME280;67556;55.656;12.590;2023-05-07T00:10:58;102618.84;;;5.21;68.89
78299;BME280;67556;55.656;12.590;2023-05-07T00:13:32;102618.56;;;5.18;69.05
78299;BME280;67556;55.656;12.590;2023-05-07T00:16:08;102611.59;;;5.29;68.79
78299;BME280;67556;55.656;12.590;2023-05-07T00:18:36;102624.78;;;5.39;68.56
78299;BME280;67556;55.656;12.590;2023-05-07T00:21:02;102615.81;;;5.37;68.49
78299;BME280;67556;55.656;12.590;2023-05-07T00:23:41;102606.03;;;5.25;69.17
78299;BME280;67556;55.656;12.590;2023-05-07T00:26:13;102607.34;;;5.31;69.21
78299;BME280;67556;55.656;12.590;2023-05-07T00:28:40;102612.66;;;5.20;69.46
78299;BME280;67556;55.656;12.590;2023-05-07T00:31:06;102591.25;;;5.28;69.00
78299;BME280;67556;55.656;12.590;2023-05-07T00:33:33;102603.13;;;5.33;69.09
78299;BME280;67556;55.656;12.590;2023-05-07T00:36:01;102599.06;;;5.16;69.30
78299;BME280;67556;55.656;12.590;2023-05-07T00:38:28;102596.44;;;5.06;69.57
78299;BME280;67556;55.656;12.590;2023-05-07T00:40:54;102597.34;;;5.06;69.69
78299;BME280;67556;55.656;12.590;2023-05-07T00:43:22;102600.53;;;5.02;70.06
78299;BME280;67556;55.656;12.590;2023-05-07T00:45:48;102606.84;;;4.94;70.28
78299;BME280;67556;55.656;12.590;2023-05-07T00:48:15;102603.94;;;5.01;70.30
78299;BME280;67556;55.656;12.590;2023-05-07T00:50:42;102605.41;;;4.97;70.32
78299;BME280;67556;55.656;12.590;2023-05-07T00:53:11;102604.47;;;4.87;70.72
78299;BME280;67556;55.656;12.590;2023-05-07T00:55:38;102605.53;;;4.99;70.58
78299;BME280;67556;55.656;12.590;2023-05-07T00:58:04;102591.00;;;4.94;70.76
78299;BME280;67556;55.656;12.590;2023-05-07T01:00:33;102603.69;;;4.98;71.05
78299;BME280;67556;55.656;12.590;2023-05-07T01:03:07;102610.00;;;4.90;71.28
78299;BME280;67556;55.656;12.590;2023-05-07T01:05:34;102614.50;;;5.01;70.98
78299;BME280;67556;55.656;12.590;2023-05-07T01:08:02;102616.22;;;5.11;70.59
78299;BME280;67556;55.656;12.590;2023-05-07T01:10:30;102618.56;;;5.18;70.74
78299;BME280;67556;55.656;12.590;2023-05-07T01:12:58;102616.22;;;5.21;70.71
78299;BME280;67556;55.656;12.590;2023-05-07T01:15:25;102619.13;;;5.24;70.59
78299;BME280;67556;55.656;12.590;2023-05-07T01:17:55;102621.88;;;5.25;70.91
78299;BME280;67556;55.656;12.590;2023-05-07T01:20:22;102610.13;;;5.22;70.70
78299;BME280;67556;55.656;12.590;2023-05-07T01:23:03;102619.53;;;5.18;71.02
78299;BME280;67556;55.656;12.590;2023-05-07T01:25:29;102614.25;;;5.18;71.13
78299;BME280;67556;55.656;12.590;2023-05-07T01:27:56;102616.22;;;5.11;71.66
78299;BME280;67556;55.656;12.590;2023-05-07T01:30:24;102618.06;;;5.12;71.98
78299;BME280;67556;55.656;12.590;2023-05-07T01:32:53;102615.41;;;5.22;71.39
78299;BME280;67556;55.656;12.590;2023-05-07T01:35:24;102618.56;;;5.18;71.82
78299;BME280;67556;55.656;12.590;2023-05-07T01:37:53;102614.50;;;5.11;72.01
78299;BME280;67556;55.656;12.590;2023-05-07T01:40:22;102614.91;;;5.16;71.91
78299;BME280;67556;55.656;12.590;2023-05-07T01:42:50;102611.31;;;5.05;72.08
78299;BME280;67556;55.656;12.590;2023-05-07T01:45:17;102606.31;;;5.08;71.75
78299;BME280;67556;55.656;12.590;2023-05-07T01:47:43;102611.31;;;5.05;72.29
78299;BME280;67556;55.656;12.590;2023-05-07T01:50:10;102605.00;;;5.03;72.31
78299;BME280;67556;55.656;12.590;2023-05-07T01:52:37;102606.03;;;5.05;72.78
78299;BME280;67556;55.656;12.590;2023-05-07T01:55:06;102605.91;;;5.14;72.24
78299;BME280;67556;55.656;12.590;2023-05-07T01:57:34;102606.03;;;5.05;72.49
78299;BME280;67556;55.656;12.590;2023-05-07T02:00:00;102606.19;;;5.07;72.53
78299;BME280;67556;55.656;12.590;2023-05-07T02:02:28;102600.25;;;5.19;72.03
78299;BME280;67556;55.656;12.590;2023-05-07T02:04:55;102613.44;;;5.09;72.48
78299;BME280;67556;55.656;12.590;2023-05-07T02:07:21;102613.59;;;5.11;72.41
78299;BME280;67556;55.656;12.590;2023-05-07T02:09:47;102599.31;;;5.09;72.25
78299;BME280;67556;55.656;12.590;2023-05-07T02:12:14;102610.00;;;5.00;72.67
78299;BME280;67556;55.656;12.590;2023-05-07T02:14:42;102606.44;;;4.99;72.83
78299;BME280;67556;55.656;12.590;2023-05-07T02:17:08;102603.13;;;5.12;72.68
78299;BME280;67556;55.656;12.590;2023-05-07T02:19:36;102602.88;;;5.09;72.33
78299;BME280;67556;55.656;12.590;2023-05-07T02:22:02;102604.47;;;5.07;72.18
78299;BME280;67556;55.656;12.590;2023-05-07T02:24:29;102605.25;;;5.16;72.14
78299;BME280;67556;55.656;12.590;2023-05-07T02:26:55;102604.47;;;5.07;72.68
78299;BME280;67556;55.656;12.590;2023-05-07T02:29:22;102608.56;;;5.04;72.69
78299;BME280;67556;55.656;12.590;2023-05-07T02:31:49;102612.28;;;5.06;72.71
78299;BME280;67556;55.656;12.590;2023-05-07T02:34:18;102613.97;;;5.15;72.16
78299;BME280;67556;55.656;12.590;2023-05-07T02:36:44;102617.00;;;5.20;72.18
78299;BME280;67556;55.656;12.590;2023-05-07T02:39:11;102618.47;;;5.16;72.33
78299;BME280;67556;55.656;12.590;2023-05-07T02:41:38;102620.84;;;5.23;71.84
78299;BME280;67556;55.656;12.590;2023-05-07T02:44:04;102604.75;;;5.10;72.31
78299;BME280;67556;55.656;12.590;2023-05-07T02:46:31;102618.56;;;5.18;71.92
78299;BME280;67556;55.656;12.590;2023-05-07T02:48:58;102610.53;;;5.16;72.14
78299;BME280;67556;55.656;12.590;2023-05-07T02:51:25;102613.03;;;5.05;72.22
78299;BME280;67556;55.656;12.590;2023-05-07T02:54:01;102612.50;;;5.09;72.05
78299;BME280;67556;55.656;12.590;2023-05-07T02:56:27;102608.94;;;5.08;72.25
78299;BME280;67556;55.656;12.590;2023-05-07T02:58:54;102604.59;;;4.98;72.34
78299;BME280;67556;55.656;12.590;2023-05-07T03:01:20;102609.34;;;5.13;72.21
78299;BME280;67556;55.656;12.590;2023-05-07T03:03:46;102606.19;;;5.17;71.93
78299;BME280;67556;55.656;12.590;2023-05-07T03:06:14;102607.09;;;5.17;71.90
78299;BME280;67556;55.656;12.590;2023-05-07T03:08:48;102609.50;;;5.14;72.20
78299;BME280;67556;55.656;12.590;2023-05-07T03:11:15;102616.19;;;5.00;72.82
78299;BME280;67556;55.656;12.590;2023-05-07T03:13:42;102613.16;;;4.96;73.23
78299;BME280;67556;55.656;12.590;2023-05-07T03:16:08;102612.66;;;5.00;72.69
78299;BME280;67556;55.656;12.590;2023-05-07T03:18:35;102610.81;;;4.99;72.66
78299;BME280;67556;55.656;12.590;2023-05-07T03:21:03;102608.56;;;5.04;72.75
78299;BME280;67556;55.656;12.590;2023-05-07T03:23:32;102614.63;;;5.13;72.28
78299;BME280;67556;55.656;12.590;2023-05-07T03:25:59;102607.78;;;5.15;72.17
78299;BME280;67556;55.656;12.590;2023-05-07T03:28:25;102607.09;;;5.17;72.00
78299;BME280;67556;55.656;12.590;2023-05-07T03:30:51;102594.16;;;5.20;71.67
78299;BME280;67556;55.656;12.590;2023-05-07T03:33:19;102600.50;;;5.12;72.50
78299;BME280;67556;55.656;12.590;2023-05-07T03:35:45;102594.56;;;5.15;72.29
78299;BME280;67556;55.656;12.590;2023-05-07T03:38:12;102591.25;;;5.17;71.82
78299;BME280;67556;55.656;12.590;2023-05-07T03:40:40;102599.16;;;5.17;71.71
78299;BME280;67556;55.656;12.590;2023-05-07T03:43:06;102610.25;;;5.13;71.94
78299;BME280;67556;55.656;12.590;2023-05-07T03:45:33;102598.53;;;5.20;71.46
78299;BME280;67556;55.656;12.590;2023-05-07T03:47:59;102602.09;;;5.20;71.77
78299;BME280;67556;55.656;12.590;2023-05-07T03:50:26;102600.50;;;4.92;72.78
78299;BME280;67556;55.656;12.590;2023-05-07T03:52:52;102600.25;;;4.99;72.79
78299;BME280;67556;55.656;12.590;2023-05-07T03:55:19;102601.44;;;5.03;72.80
78299;BME280;67556;55.656;12.590;2023-05-07T03:57:47;102592.19;;;5.08;72.65
78299;BME280;67556;55.656;12.590;2023-05-07T04:00:13;102596.69;;;5.19;72.33
78299;BME280;67556;55.656;12.590;2023-05-07T04:02:41;102597.06;;;5.23;72.18
78299;BME280;67556;55.656;12.590;2023-05-07T04:05:09;102609.88;;;5.19;72.07
78299;BME280;67556;55.656;12.590;2023-05-07T04:07:37;102610.41;;;5.25;71.98
78299;BME280;67556;55.656;12.590;2023-05-07T04:10:04;102613.03;;;5.25;71.47
78299;BME280;67556;55.656;12.590;2023-05-07T04:12:38;102620.56;;;5.31;71.36
78299;BME280;67556;55.656;12.590;2023-05-07T04:15:12;102624.38;;;5.34;71.14
78299;BME280;67556;55.656;12.590;2023-05-07T04:17:39;102616.22;;;5.21;71.65
78299;BME280;67556;55.656;12.590;2023-05-07T04:20:08;102625.59;;;5.28;71.66
78299;BME280;67556;55.656;12.590;2023-05-07T04:22:36;102624.53;;;5.36;71.14
78299;BME280;67556;55.656;12.590;2023-05-07T04:25:11;102614.88;;;5.36;71.39
78299;BME280;67556;55.656;12.590;2023-05-07T04:27:44;102612.75;;;5.42;71.10
78299;BME280;67556;55.656;12.590;2023-05-07T04:30:13;102622.00;;;5.37;71.47
78299;BME280;67556;55.656;12.590;2023-05-07T04:32:40;102626.13;;;5.44;71.35
78299;BME280;67556;55.656;12.590;2023-05-07T04:35:07;102624.78;;;5.39;71.59
78299;BME280;67556;55.656;12.590;2023-05-07T04:37:33;102624.78;;;5.39;71.65
78299;BME280;67556;55.656;12.590;2023-05-07T04:40:01;102627.44;;;5.49;70.96
78299;BME280;67556;55.656;12.590;2023-05-07T04:42:30;102629.00;;;5.57;70.76
78299;BME280;67556;55.656;12.590;2023-05-07T04:45:03;102625.06;;;5.52;70.96
78299;BME280;67556;55.656;12.590;2023-05-07T04:47:33;102636.38;;;5.51;71.01
78299;BME280;67556;55.656;12.590;2023-05-07T04:49:59;102633.09;;;5.54;71.12
78299;BME280;67556;55.656;12.590;2023-05-07T04:52:26;102643.66;;;5.54;71.14
78299;BME280;67556;55.656;12.590;2023-05-07T04:54:59;102642.06;;;5.66;70.92
78299;BME280;67556;55.656;12.590;2023-05-07T04:57:26;102632.16;;;5.73;70.55
78299;BME280;67556;55.656;12.590;2023-05-07T04:59:59;102627.88;;;5.75;70.79
78299;BME280;67556;55.656;12.590;2023-05-07T05:02:27;102634.41;;;5.69;70.53
78299;BME280;67556;55.656;12.590;2023-05-07T05:04:54;102635.16;;;5.78;70.91
78299;BME280;67556;55.656;12.590;2023-05-07T05:07:21;102637.66;;;5.87;70.84
78299;BME280;67556;55.656;12.590;2023-05-07T05:09:47;102634.22;;;5.88;70.27
78299;BME280;67556;55.656;12.590;2023-05-07T05:12:15;102635.81;;;5.96;69.97
78299;BME280;67556;55.656;12.590;2023-05-07T05:14:41;102638.81;;;6.00;70.39
78299;BME280;67556;55.656;12.590;2023-05-07T05:17:08;102638.28;;;6.05;69.48
78299;BME280;67556;55.656;12.590;2023-05-07T05:19:35;102637.19;;;6.13;69.63
78299;BME280;67556;55.656;12.590;2023-05-07T05:22:03;102637.84;;;6.20;68.75
78299;BME280;67556;55.656;12.590;2023-05-07T05:24:30;102639.56;;;6.20;69.23
78299;BME280;67556;55.656;12.590;2023-05-07T05:26:56;102645.78;;;6.10;69.50
78299;BME280;67556;55.656;12.590;2023-05-07T05:29:25;102648.50;;;6.00;69.86
78299;BME280;67556;55.656;12.590;2023-05-07T05:31:58;102647.53;;;6.10;69.10
78299;BME280;67556;55.656;12.590;2023-05-07T05:34:24;102648.28;;;6.19;69.16
78299;BME280;67556;55.656;12.590;2023-05-07T05:36:52;102643.75;;;6.28;68.67
78299;BME280;67556;55.656;12.590;2023-05-07T05:39:20;102655.81;;;6.24;68.76
78299;BME280;67556;55.656;12.590;2023-05-07T05:41:54;102651.81;;;6.30;68.97
78299;BME280;67556;55.656;12.590;2023-05-07T05:44:20;102653.16;;;6.24;68.78
78299;BME280;67556;55.656;12.590;2023-05-07T05:46:55;102652.63;;;6.29;68.95
78299;BME280;67556;55.656;12.590;2023-05-07T05:49:24;102664.31;;;6.42;68.83
78299;BME280;67556;55.656;12.590;2023-05-07T05:51:52;102655.84;;;6.46;68.94
78299;BME280;67556;55.656;12.590;2023-05-07T05:54:26;102664.06;;;6.39;68.53
78299;BME280;67556;55.656;12.590;2023-05-07T05:56:54;102668.19;;;6.36;68.80
78299;BME280;67556;55.656;12.590;2023-05-07T05:59:20;102663.78;;;6.46;68.82
78299;BME280;67556;55.656;12.590;2023-05-07T06:01:47;102661.41;;;6.49;68.55
78299;BME280;67556;55.656;12.590;2023-05-07T06:04:13;102659.34;;;6.57;67.64
78299;BME280;67556;55.656;12.590;2023-05-07T06:06:39;102666.72;;;6.61;67.64
78299;BME280;67556;55.656;12.590;2023-05-07T06:09:14;102669.94;;;6.57;67.95
78299;BME280;67556;55.656;12.590;2023-05-07T06:11:41;102672.53;;;6.67;68.39
78299;BME280;67556;55.656;12.590;2023-05-07T06:14:09;102679.69;;;6.68;68.39
78299;BME280;67556;55.656;12.590;2023-05-07T06:16:38;102676.84;;;6.77;68.09
78299;BME280;67556;55.656;12.590;2023-05-07T06:19:05;102677.66;;;6.76;67.72
78299;BME280;67556;55.656;12.590;2023-05-07T06:21:38;102673.34;;;6.66;68.41
78299;BME280;67556;55.656;12.590;2023-05-07T06:24:06;102678.13;;;6.82;67.69
78299;BME280;67556;55.656;12.590;2023-05-07T06:26:32;102673.47;;;6.90;67.16
78299;BME280;67556;55.656;12.590;2023-05-07T06:29:01;102670.97;;;7.03;67.13
78299;BME280;67556;55.656;12.590;2023-05-07T06:31:33;102683.09;;;7.11;67.17
78299;BME280;67556;55.656;12.590;2023-05-07T06:34:15;102680.63;;;7.24;66.38
78299;BME280;67556;55.656;12.590;2023-05-07T06:36:42;102679.69;;;7.24;66.81
78299;BME280;67556;55.656;12.590;2023-05-07T06:39:08;102681.69;;;7.27;66.21
78299;BME280;67556;55.656;12.590;2023-05-07T06:41:34;102673.81;;;7.16;66.27
78299;BME280;67556;55.656;12.590;2023-05-07T06:44:04;102688.75;;;7.38;66.06
78299;BME280;67556;55.656;12.590;2023-05-07T06:46:36;102681.94;;;7.41;66.24
78299;BME280;67556;55.656;12.590;2023-05-07T06:49:05;102686.81;;;7.47;65.73
78299;BME280;67556;55.656;12.590;2023-05-07T06:51:33;102685.75;;;7.45;65.49
78299;BME280;67556;55.656;12.590;2023-05-07T06:54:00;102673.09;;;7.53;65.31
78299;BME280;67556;55.656;12.590;2023-05-07T06:56:38;102679.25;;;7.63;64.94
78299;BME280;67556;55.656;12.590;2023-05-07T06:59:06;102680.84;;;7.61;65.04
78299;BME280;67556;55.656;12.590;2023-05-07T07:01:33;102673.13;;;7.64;65.26
78299;BME280;67556;55.656;12.590;2023-05-07T07:04:15;102683.97;;;7.67;64.96
78299;BME280;67556;55.656;12.590;2023-05-07T07:06:44;102691.13;;;7.68;64.97
78299;BME280;67556;55.656;12.590;2023-05-07T07:09:24;102677.06;;;7.69;65.26
78299;BME280;67556;55.656;12.590;2023-05-07T07:11:51;102682.84;;;7.75;65.04
78299;BME280;67556;55.656;12.590;2023-05-07T07:14:18;102688.59;;;7.82;64.97
78299;BME280;67556;55.656;12.590;2023-05-07T07:16:45;102689.06;;;7.88;64.85
78299;BME280;67556;55.656;12.590;2023-05-07T07:19:14;102689.31;;;7.91;65.05
78299;BME280;67556;55.656;12.590;2023-05-07T07:21:42;102697.72;;;8.09;64.43
78299;BME280;67556;55.656;12.590;2023-05-07T07:24:09;102695.31;;;8.12;64.41
78299;BME280;67556;55.656;12.590;2023-05-07T07:26:37;102691.16;;;8.04;64.46
78299;BME280;67556;55.656;12.590;2023-05-07T07:29:05;102689.31;;;8.14;64.38
78299;BME280;67556;55.656;12.590;2023-05-07T07:31:33;102676.84;;;8.25;64.14
78299;BME280;67556;55.656;12.590;2023-05-07T07:34:01;102682.72;;;8.33;64.21
78299;BME280;67556;55.656;12.590;2023-05-07T07:36:28;102676.41;;;8.31;63.55
78299;BME280;67556;55.656;12.590;2023-05-07T07:38:55;102686.81;;;8.39;63.46
78299;BME280;67556;55.656;12.590;2023-05-07T07:41:21;102682.66;;;8.43;63.61
78299;BME280;67556;55.656;12.590;2023-05-07T07:43:49;102684.94;;;8.50;62.85
78299;BME280;67556;55.656;12.590;2023-05-07T07:46:15;102682.75;;;8.56;62.40
78299;BME280;67556;55.656;12.590;2023-05-07T07:48:44;102687.81;;;8.65;63.21
78299;BME280;67556;55.656;12.590;2023-05-07T07:51:10;102690.63;;;8.80;62.43
78299;BME280;67556;55.656;12.590;2023-05-07T07:53:38;102685.97;;;8.89;62.36
78299;BME280;67556;55.656;12.590;2023-05-07T07:56:07;102687.25;;;8.94;61.42
78299;BME280;67556;55.656;12.590;2023-05-07T07:58:33;102685.34;;;9.05;61.99
78299;BME280;67556;55.656;12.590;2023-05-07T08:01:01;102678.09;;;9.02;61.75
78299;BME280;67556;55.656;12.590;2023-05-07T08:03:29;102681.41;;;9.11;61.16
78299;BME280;67556;55.656;12.590;2023-05-07T08:05:58;102681.00;;;9.18;61.78
78299;BME280;67556;55.656;12.590;2023-05-07T08:08:27;102677.88;;;9.24;61.42
78299;BME280;67556;55.656;12.590;2023-05-07T08:10:53;102673.75;;;9.41;61.47
78299;BME280;67556;55.656;12.590;2023-05-07T08:13:21;102669.25;;;9.40;61.66
78299;BME280;67556;55.656;12.590;2023-05-07T08:15:47;102677.88;;;9.49;60.98
78299;BME280;67556;55.656;12.590;2023-05-07T08:18:22;102669.66;;;9.46;60.29
78299;BME280;67556;55.656;12.590;2023-05-07T08:20:49;102680.34;;;9.59;60.10
78299;BME280;67556;55.656;12.590;2023-05-07T08:23:29;102675.25;;;9.75;61.07
78299;BME280;67556;55.656;12.590;2023-05-07T08:25:57;102669.72;;;9.86;60.53
78299;BME280;67556;55.656;12.590;2023-05-07T08:28:25;102677.94;;;9.89;60.80
78299;BME280;67556;55.656;12.590;2023-05-07T08:30:59;102673.13;;;9.96;59.85
78299;BME280;67556;55.656;12.590;2023-05-07T08:33:35;102683.91;;;10.11;59.85
78299;BME280;67556;55.656;12.590;2023-05-07T08:36:02;102678.38;;;10.21;59.35
78299;BME280;67556;55.656;12.590;2023-05-07T08:38:37;102686.28;;;10.33;59.31
78299;BME280;67556;55.656;12.590;2023-05-07T08:41:05;102674.78;;;10.47;58.01
78299;BME280;67556;55.656;12.590;2023-05-07T08:43:32;102683.50;;;10.58;57.52
78299;BME280;67556;55.656;12.590;2023-05-07T08:46:17;102681.19;;;10.78;57.68
78299;BME280;67556;55.656;12.590;2023-05-07T08:48:44;102686.06;;;10.98;55.88
78299;BME280;67556;55.656;12.590;2023-05-07T08:51:12;102685.91;;;11.10;55.13
78299;BME280;67556;55.656;12.590;2023-05-07T08:53:41;102685.00;;;11.09;54.01
78299;BME280;67556;55.656;12.590;2023-05-07T08:56:09;102692.75;;;11.19;53.44
78299;BME280;67556;55.656;12.590;2023-05-07T08:58:41;102686.22;;;11.29;52.82
78299;BME280;67556;55.656;12.590;2023-05-07T09:01:09;102687.09;;;11.43;53.22
78299;BME280;67556;55.656;12.590;2023-05-07T09:03:45;102691.34;;;11.54;53.16
78299;BME280;67556;55.656;12.590;2023-05-07T09:06:12;102686.75;;;11.66;52.71
78299;BME280;67556;55.656;12.590;2023-05-07T09:08:48;102689.34;;;11.65;53.08
78299;BME280;67556;55.656;12.590;2023-05-07T09:11:15;102681.59;;;11.69;53.25
78299;BME280;67556;55.656;12.590;2023-05-07T09:13:42;102684.22;;;11.83;52.39
78299;BME280;67556;55.656;12.590;2023-05-07T09:16:10;102678.78;;;11.96;51.90
78299;BME280;67556;55.656;12.590;2023-05-07T09:18:41;102684.03;;;12.09;52.21
78299;BME280;67556;55.656;12.590;2023-05-07T09:21:09;102680.31;;;12.37;49.64
78299;BME280;67556;55.656;12.590;2023-05-07T09:23:47;102677.88;;;12.56;47.57
78299;BME280;67556;55.656;12.590;2023-05-07T09:26:14;102679.38;;;12.67;46.93
78299;BME280;67556;55.656;12.590;2023-05-07T09:28:41;102675.97;;;12.70;45.60
78299;BME280;67556;55.656;12.590;2023-05-07T09:31:07;102674.41;;;12.73;45.99
78299;BME280;67556;55.656;12.590;2023-05-07T09:33:34;102668.81;;;12.85;45.03
78299;BME280;67556;55.656;12.590;2023-05-07T09:36:08;102678.28;;;12.95;44.48
78299;BME280;67556;55.656;12.590;2023-05-07T09:38:37;102678.09;;;12.92;42.22
78299;BME280;67556;55.656;12.590;2023-05-07T09:41:14;102678.44;;;12.98;44.68
78299;BME280;67556;55.656;12.590;2023-05-07T09:43:40;102669.47;;;12.97;42.78
78299;BME280;67556;55.656;12.590;2023-05-07T09:46:09;102680.78;;;13.08;42.10
78299;BME280;67556;55.656;12.590;2023-05-07T09:48:39;102682.47;;;13.06;41.79
78299;BME280;67556;55.656;12.590;2023-05-07T09:51:21;102674.44;;;13.22;43.20
78299;BME280;67556;55.656;12.590;2023-05-07T09:53:53;102681.66;;;13.23;42.54
78299;BME280;67556;55.656;12.590;2023-05-07T09:56:22;102666.31;;;13.21;41.42
78299;BME280;67556;55.656;12.590;2023-05-07T09:58:49;102674.09;;;13.16;40.91
78299;BME280;67556;55.656;12.590;2023-05-07T10:01:18;102677.44;;;13.12;42.21
78299;BME280;67556;55.656;12.590;2023-05-07T10:03:49;102684.63;;;13.13;41.28
78299;BME280;67556;55.656;12.590;2023-05-07T10:06:16;102679.63;;;13.19;41.60
78299;BME280;67556;55.656;12.590;2023-05-07T10:08:44;102683.56;;;13.26;40.37
78299;BME280;67556;55.656;12.590;2023-05-07T10:11:11;102678.66;;;13.34;41.56
78299;BME280;67556;55.656;12.590;2023-05-07T10:13:40;102678.47;;;13.31;39.35
78299;BME280;67556;55.656;12.590;2023-05-07T10:16:08;102673.22;;;13.32;39.39
78299;BME280;67556;55.656;12.590;2023-05-07T10:18:35;102682.47;;;13.39;40.94
78299;BME280;67556;55.656;12.590;2023-05-07T10:21:07;102677.47;;;13.45;40.94
78299;BME280;67556;55.656;12.590;2023-05-07T10:23:34;102686.66;;;13.50;38.38
78299;BME280;67556;55.656;12.590;2023-05-07T10:26:04;102680.63;;;13.54;38.38
78299;BME280;67556;55.656;12.590;2023-05-07T10:28:34;102682.19;;;13.67;40.29
78299;BME280;67556;55.656;12.590;2023-05-07T10:31:27;102684.75;;;13.82;39.76
78299;BME280;67556;55.656;12.590;2023-05-07T10:34:01;102670.88;;;13.72;39.12
78299;BME280;67556;55.656;12.590;2023-05-07T10:36:29;102684.38;;;13.74;37.21
78299;BME280;67556;55.656;12.590;2023-05-07T10:38:56;102685.72;;;13.66;38.95
78299;BME280;67556;55.656;12.590;2023-05-07T10:41:28;102683.84;;;13.65;38.17
78299;BME280;67556;55.656;12.590;2023-05-07T10:43:54;102695.19;;;13.59;38.01
78299;BME280;67556;55.656;12.590;2023-05-07T10:46:28;102683.63;;;13.44;39.12
78299;BME280;67556;55.656;12.590;2023-05-07T10:49:08;102697.69;;;13.56;38.12
78299;BME280;67556;55.656;12.590;2023-05-07T10:51:36;102697.34;;;13.66;38.43
78299;BME280;67556;55.656;12.590;2023-05-07T10:54:22;102687.78;;;13.71;37.92
78299;BME280;67556;55.656;12.590;2023-05-07T10:56:50;102685.19;;;13.73;38.15
78299;BME280;67556;55.656;12.590;2023-05-07T10:59:38;102701.19;;;13.71;37.66
78299;BME280;67556;55.656;12.590;2023-05-07T11:02:09;102702.03;;;13.70;39.02
78299;BME280;67556;55.656;12.590;2023-05-07T11:04:39;102701.25;;;13.73;36.52
78299;BME280;67556;55.656;12.590;2023-05-07T11:07:24;102698.72;;;13.92;38.47
78299;BME280;67556;55.656;12.590;2023-05-07T11:09:56;102703.19;;;14.10;37.54
78299;BME280;67556;55.656;12.590;2023-05-07T11:12:48;102706.75;;;13.92;35.23
78299;BME280;67556;55.656;12.590;2023-05-07T11:15:15;102697.19;;;13.97;37.40
78299;BME280;67556;55.656;12.590;2023-05-07T11:18:19;102700.09;;;14.02;36.10
78299;BME280;67556;55.656;12.590;2023-05-07T11:20:56;102698.09;;;13.98;36.35
78299;BME280;67556;55.656;12.590;2023-05-07T11:23:54;102697.59;;;14.05;35.90
78299;BME280;67556;55.656;12.590;2023-05-07T11:26:25;102692.47;;;14.10;36.63
78299;BME280;67556;55.656;12.590;2023-05-07T11:28:52;102681.69;;;14.08;35.50
78299;BME280;67556;55.656;12.590;2023-05-07T11:31:22;102672.31;;;14.00;35.95
78299;BME280;67556;55.656;12.590;2023-05-07T11:33:51;102688.34;;;14.16;35.16
78299;BME280;67556;55.656;12.590;2023-05-07T11:36:18;102688.81;;;14.26;36.46
78299;BME280;67556;55.656;12.590;2023-05-07T11:38:46;102694.56;;;14.33;35.45
78299;BME280;67556;55.656;12.590;2023-05-07T11:41:15;102676.53;;;14.31;35.26
78299;BME280;67556;55.656;12.590;2023-05-07T11:43:56;102683.91;;;14.35;34.57
78299;BME280;67556;55.656;12.590;2023-05-07T11:46:23;102687.09;;;14.28;34.67
78299;BME280;67556;55.656;12.590;2023-05-07T11:48:51;102682.84;;;14.49;34.98
78299;BME280;67556;55.656;12.590;2023-05-07T11:51:25;102683.31;;;14.58;34.66
78299;BME280;67556;55.656;12.590;2023-05-07T11:54:19;102676.72;;;14.52;33.59
78299;BME280;67556;55.656;12.590;2023-05-07T11:56:47;102687.50;;;14.53;34.16
78299;BME280;67556;55.656;12.590;2023-05-07T11:59:17;102675.50;;;14.63;34.40
78299;BME280;67556;55.656;12.590;2023-05-07T12:01:45;102680.75;;;14.79;33.72
78299;BME280;67556;55.656;12.590;2023-05-07T12:04:13;102684.03;;;14.73;33.05
78299;BME280;67556;55.656;12.590;2023-05-07T12:06:40;102689.56;;;14.77;33.72
78299;BME280;67556;55.656;12.590;2023-05-07T12:09:15;102684.34;;;14.80;32.70
78299;BME280;67556;55.656;12.590;2023-05-07T12:11:45;102686.72;;;14.73;32.95
78299;BME280;67556;55.656;12.590;2023-05-07T12:14:12;102675.63;;;14.84;33.18
78299;BME280;67556;55.656;12.590;2023-05-07T12:16:53;102687.00;;;14.97;32.14
78299;BME280;67556;55.656;12.590;2023-05-07T12:19:27;102683.09;;;14.91;32.87
78299;BME280;67556;55.656;12.590;2023-05-07T12:22:13;102678.59;;;15.09;32.92
78299;BME280;67556;55.656;12.590;2023-05-07T12:24:45;102678.59;;;15.09;31.14
78299;BME280;67556;55.656;12.590;2023-05-07T12:27:13;102673.09;;;15.06;31.69
78299;BME280;67556;55.656;12.590;2023-05-07T12:29:43;102682.41;;;15.14;32.21
78299;BME280;67556;55.656;12.590;2023-05-07T12:32:13;102673.88;;;15.23;32.21
78299;BME280;67556;55.656;12.590;2023-05-07T12:34:57;102687.81;;;15.34;31.68
78299;BME280;67556;55.656;12.590;2023-05-07T12:37:25;102682.97;;;15.46;31.24
78299;BME280;67556;55.656;12.590;2023-05-07T12:40:03;102681.97;;;15.63;30.62
78299;BME280;67556;55.656;12.590;2023-05-07T12:42:32;102676.38;;;15.59;30.02
78299;BME280;67556;55.656;12.590;2023-05-07T12:44:59;102686.91;;;15.54;30.27
78299;BME280;67556;55.656;12.590;2023-05-07T12:47:27;102687.22;;;15.60;29.73
78299;BME280;67556;55.656;12.590;2023-05-07T12:49:56;102679.59;;;15.69;29.87
78299;BME280;67556;55.656;12.590;2023-05-07T12:52:28;102683.19;;;15.70;29.86
78299;BME280;67556;55.656;12.590;2023-05-07T12:54:56;102678.63;;;15.67;29.25
78299;BME280;67556;55.656;12.590;2023-05-07T12:57:24;102680.22;;;15.64;29.03
78299;BME280;67556;55.656;12.590;2023-05-07T13:00:04;102681.56;;;15.74;29.78